Time;durP1;ratioP1;P1;durP2;ratioP2;P2;SDS_P1;SDS_P2;PMS_P1;PMS_P2;Temp;Humidity;BMP_temperature;BMP_pressure;BME280_temperature;BME280_humidity;BME280_pressure;Samples;Min_cycle;Max_cycle;Signal;HPM_P1;HPM_P2
2022/10/09 00:02:14;;;;;;;7.93;5.20;;;;;;;12.88;75.23;101225.25;5045196;28;20793;-74
2022/10/09 00:04:39;;;;;;;11.40;6.00;;;;;;;12.82;75.16;101229.78;5035614;28;20397;-74
2022/10/09 00:07:04;;;;;;;10.50;5.80;;;;;;;12.81;75.36;101232.75;5045485;28;20908;-74
2022/10/09 00:09:30;;;;;;;11.70;5.53;;;;;;;12.82;75.64;101221.59;5043156;28;20432;-74
2022/10/09 00:11:55;;;;;;;9.03;4.83;;;;;;;12.80;75.23;101217.50;5043032;28;20469;-74
2022/10/09 00:14:20;;;;;;;6.47;5.27;;;;;;;12.78;75.16;101222.31;5040615;28;20411;-74
2022/10/09 00:16:46;;;;;;;10.73;5.83;;;;;;;12.79;75.58;101224.81;5055864;28;20453;-75
2022/10/09 00:19:11;;;;;;;8.63;5.53;;;;;;;12.76;75.58;101222.56;5060876;28;20393;-74
2022/10/09 00:21:36;;;;;;;8.47;5.77;;;;;;;12.73;75.41;101214.91;5039763;28;20459;-74
2022/10/09 00:24:03;;;;;;;9.67;5.03;;;;;;;12.73;75.59;101216.78;5058658;28;20399;-74
2022/10/09 00:26:29;;;;;;;7.13;4.97;;;;;;;12.72;75.41;101213.25;5055434;28;20413;-74
2022/10/09 00:28:55;;;;;;;10.18;5.18;;;;;;;12.73;75.31;101214.91;5060223;28;20401;-74
2022/10/09 00:31:21;;;;;;;6.63;4.33;;;;;;;12.74;75.09;101204.84;5059948;28;20478;-74
2022/10/09 00:33:46;;;;;;;8.68;4.38;;;;;;;12.71;75.15;101211.56;5054580;28;20450;-74
2022/10/09 00:36:15;;;;;;;9.50;4.70;;;;;;;12.69;75.43;101207.44;5036110;28;20416;-74
2022/10/09 00:38:40;;;;;;;6.00;4.30;;;;;;;12.63;75.47;101206.53;5036266;28;20411;-74
2022/10/09 00:41:05;;;;;;;8.53;4.30;;;;;;;12.63;75.43;101205.69;5038945;28;20403;-74
2022/10/09 00:43:43;;;;;;;7.70;4.37;;;;;;;12.67;75.10;101205.00;5016396;28;24920;-74
2022/10/09 00:46:39;;;;;;;11.63;5.03;;;;;;;12.67;75.31;101206.88;5010736;28;20415;-74
2022/10/09 00:49:30;;;;;;;7.78;4.47;;;;;;;12.65;75.37;101207.09;5010633;28;20442;-74
2022/10/09 00:51:58;;;;;;;11.05;4.78;;;;;;;12.64;75.29;101207.38;5014013;28;20928;-73
2022/10/09 00:54:30;;;;;;;5.22;4.55;;;;;;;12.58;75.07;101205.59;5002726;28;20423;-74
2022/10/09 00:56:56;;;;;;;8.57;5.03;;;;;;;12.57;75.21;101198.50;5009556;28;20916;-74
2022/10/09 00:59:22;;;;;;;7.78;5.15;;;;;;;12.57;75.50;101202.06;5024101;28;20447;-74
2022/10/09 01:01:47;;;;;;;9.80;4.60;;;;;;;12.54;75.53;101205.25;5018959;28;20397;-74
2022/10/09 01:04:13;;;;;;;11.77;4.77;;;;;;;12.56;75.57;101194.97;5020675;28;20398;-74
2022/10/09 01:06:53;;;;;;;10.93;4.60;;;;;;;12.58;75.56;101195.53;5012368;28;20773;-74
2022/10/09 01:09:24;;;;;;;7.28;4.70;;;;;;;12.56;75.57;101200.41;5010387;28;20413;-74
2022/10/09 01:12:20;;;;;;;8.98;4.55;;;;;;;12.57;75.38;101195.78;4999701;28;20409;-74
2022/10/09 01:15:01;;;;;;;6.90;4.80;;;;;;;12.54;75.53;101194.38;5017059;28;20403;-74
2022/10/09 01:17:50;;;;;;;8.30;5.18;;;;;;;12.51;75.10;101183.16;5006261;28;20393;-74
2022/10/09 01:20:30;;;;;;;7.35;4.60;;;;;;;12.48;75.32;101184.44;5020236;28;20387;-74
2022/10/09 01:23:13;;;;;;;9.77;4.50;;;;;;;12.42;75.29;101194.38;5014290;28;20447;-75
2022/10/09 01:26:12;;;;;;;8.82;5.22;;;;;;;12.42;75.50;101188.97;5022101;28;20404;-74
2022/10/09 01:28:39;;;;;;;17.23;7.13;;;;;;;12.38;75.13;101176.09;5011592;28;20426;-74
2022/10/09 01:31:06;;;;;;;9.18;6.07;;;;;;;12.35;75.12;101180.09;5012167;28;20479;-74
2022/10/09 01:33:32;;;;;;;8.43;5.22;;;;;;;12.37;75.43;101179.88;5017235;28;20447;-74
2022/10/09 01:36:00;;;;;;;9.65;4.45;;;;;;;12.39;75.10;101172.28;5010634;28;20901;-74
2022/10/09 01:38:27;;;;;;;10.88;4.57;;;;;;;12.38;75.15;101167.94;5025593;28;20414;-74
2022/10/09 01:40:53;;;;;;;9.02;4.75;;;;;;;12.36;75.08;101170.88;5004336;28;20407;-74
2022/10/09 01:43:19;;;;;;;7.88;4.88;;;;;;;12.34;75.02;101164.03;5016773;28;20428;-74
2022/10/09 01:45:46;;;;;;;8.30;4.50;;;;;;;12.35;75.21;101163.78;5023507;28;20433;-74
2022/10/09 01:48:17;;;;;;;9.05;4.85;;;;;;;12.32;75.15;101163.44;5016431;28;20399;-74
2022/10/09 01:50:44;;;;;;;5.38;4.53;;;;;;;12.33;75.02;101156.94;5016370;28;20440;-74
2022/10/09 01:53:14;;;;;;;6.47;4.67;;;;;;;12.32;75.02;101158.84;5006822;28;20745;-74
2022/10/09 01:55:50;;;;;;;7.72;4.43;;;;;;;12.30;75.00;101157.44;5024697;28;20444;-74
2022/10/09 01:58:29;;;;;;;9.00;4.10;;;;;;;12.30;74.91;101155.53;5019597;28;20421;-74
2022/10/09 02:01:02;;;;;;;6.97;4.68;;;;;;;12.29;75.05;101153.88;5015637;28;20464;-74
2022/10/09 02:03:29;;;;;;;8.15;4.20;;;;;;;12.28;75.08;101146.78;5008608;28;20446;-74
2022/10/09 02:05:56;;;;;;;6.03;4.20;;;;;;;12.25;75.08;101149.97;5025058;28;20395;-74
2022/10/09 02:08:23;;;;;;;8.68;4.43;;;;;;;12.27;75.22;101144.31;5020987;28;20416;-74
2022/10/09 02:10:54;;;;;;;7.95;4.88;;;;;;;12.26;75.00;101148.94;5016317;28;20413;-74
2022/10/09 02:13:20;;;;;;;9.88;5.20;;;;;;;12.25;74.97;101138.31;5012924;28;20425;-74
2022/10/09 02:15:50;;;;;;;8.88;5.20;;;;;;;12.23;75.02;101132.28;5024855;28;20847;-74
2022/10/09 02:18:24;;;;;;;12.98;5.57;;;;;;;12.14;75.07;101134.53;5003346;28;20418;-74
2022/10/09 02:20:54;;;;;;;9.18;5.07;;;;;;;12.12;75.25;101144.00;5011506;28;20402;-74
2022/10/09 02:23:22;;;;;;;9.30;4.82;;;;;;;12.13;75.03;101138.31;5014365;28;20414;-74
2022/10/09 02:25:48;;;;;;;13.23;5.33;;;;;;;12.11;75.18;101136.91;5023584;28;20407;-74
2022/10/09 02:28:13;;;;;;;8.03;4.87;;;;;;;12.12;75.28;101128.50;5021008;28;20845;-75
2022/10/09 02:31:05;;;;;;;8.57;5.33;;;;;;;12.09;75.11;101133.59;5020894;28;20487;-74
2022/10/09 02:33:32;;;;;;;12.60;5.57;;;;;;;12.04;75.28;101126.16;5005304;28;20426;-74
2022/10/09 02:35:58;;;;;;;8.85;5.18;;;;;;;12.02;75.22;101124.75;5030999;28;20401;-74
2022/10/09 02:38:23;;;;;;;7.68;4.75;;;;;;;11.99;75.21;101127.94;5020760;28;20453;-74
2022/10/09 02:40:49;;;;;;;12.67;6.00;;;;;;;11.97;75.50;101122.75;5023106;28;20947;-74
2022/10/09 02:43:14;;;;;;;10.27;5.03;;;;;;;12.00;75.16;101124.97;5020399;28;20501;-74
2022/10/09 02:45:39;;;;;;;8.50;4.63;;;;;;;12.00;75.23;101124.16;5021629;28;20404;-74
2022/10/09 02:48:04;;;;;;;9.27;5.17;;;;;;;11.98;75.05;101121.69;5020643;28;20389;-74
2022/10/09 02:50:30;;;;;;;8.67;5.00;;;;;;;11.87;75.20;101120.63;5006455;28;20413;-74
2022/10/09 02:52:55;;;;;;;8.97;5.20;;;;;;;11.79;75.38;101117.44;5009528;28;20826;-74
2022/10/09 02:55:20;;;;;;;8.13;5.40;;;;;;;11.79;75.59;101115.53;5018087;28;20387;-74
2022/10/09 02:57:45;;;;;;;7.20;5.03;;;;;;;11.83;75.42;101116.72;5020525;28;20401;-74
2022/10/09 03:00:11;;;;;;;10.20;5.37;;;;;;;11.84;75.41;101112.13;5013956;28;20404;-74
2022/10/09 03:02:36;;;;;;;9.93;5.03;;;;;;;11.88;75.21;101111.44;5005833;28;20411;-75
2022/10/09 03:05:02;;;;;;;7.20;4.93;;;;;;;11.87;75.22;101108.94;5011324;28;20391;-74
2022/10/09 03:07:27;;;;;;;14.93;5.30;;;;;;;11.89;75.13;101114.94;5020056;28;20412;-74
2022/10/09 03:09:53;;;;;;;10.40;5.53;;;;;;;11.88;75.12;101116.03;5001141;28;20890;-74
2022/10/09 03:12:20;;;;;;;7.43;4.88;;;;;;;11.88;74.99;101106.00;5024275;28;20481;-74
2022/10/09 03:14:46;;;;;;;6.65;4.78;;;;;;;11.84;75.06;101112.13;5016408;28;20416;-74
2022/10/09 03:17:13;;;;;;;7.72;5.13;;;;;;;11.81;75.24;101118.88;5019688;28;21382;-74
2022/10/09 03:19:38;;;;;;;9.40;5.20;;;;;;;11.78;75.23;101119.34;5019602;28;20428;-74
2022/10/09 03:22:03;;;;;;;8.15;4.85;;;;;;;11.77;75.23;101111.41;5014921;28;20421;-74
2022/10/09 03:24:28;;;;;;;9.37;5.23;;;;;;;11.80;74.94;101116.38;5019279;28;20423;-74
2022/10/09 03:26:54;;;;;;;8.73;5.13;;;;;;;11.79;75.03;101109.28;5020886;28;20391;-74
2022/10/09 03:29:19;;;;;;;7.30;5.00;;;;;;;11.78;75.14;101118.50;5019947;28;20809;-74
2022/10/09 03:31:44;;;;;;;8.23;4.50;;;;;;;11.74;74.89;101120.88;5018325;28;20448;-74
2022/10/09 03:34:10;;;;;;;7.47;4.85;;;;;;;11.67;75.16;101122.00;5016920;28;20810;-74
2022/10/09 03:36:36;;;;;;;9.20;4.50;;;;;;;11.69;75.22;101125.34;5022405;28;20387;-74
2022/10/09 03:39:01;;;;;;;11.70;5.50;;;;;;;11.68;75.01;101120.97;5018289;28;20396;-74
2022/10/09 03:41:26;;;;;;;10.27;4.93;;;;;;;11.62;75.41;101124.63;5015776;28;20492;-74
2022/10/09 03:43:51;;;;;;;14.67;4.93;;;;;;;11.65;75.35;101114.13;5018780;28;20403;-74
2022/10/09 03:46:17;;;;;;;8.93;5.10;;;;;;;11.66;75.18;101121.19;5023352;28;20399;-74
2022/10/09 03:48:42;;;;;;;11.13;4.55;;;;;;;11.69;75.17;101117.19;5019522;28;20871;-74
2022/10/09 03:51:07;;;;;;;10.40;4.50;;;;;;;11.64;75.42;101122.50;5011711;28;20792;-74
2022/10/09 03:53:33;;;;;;;6.87;4.90;;;;;;;11.66;75.46;101120.34;5016838;28;20420;-74
2022/10/09 03:55:58;;;;;;;11.10;5.10;;;;;;;11.67;75.34;101116.59;5021194;28;20399;-75
2022/10/09 03:58:23;;;;;;;12.30;4.90;;;;;;;11.68;75.38;101121.78;5020505;28;20490;-74
2022/10/09 04:00:50;;;;;;;9.38;5.13;;;;;;;11.68;75.12;101116.34;5006698;28;20447;-74
2022/10/09 04:03:16;;;;;;;7.45;5.68;;;;;;;11.68;75.11;101123.66;4995735;28;20812;-74
2022/10/09 04:05:41;;;;;;;7.87;4.93;;;;;;;11.69;74.99;101119.91;5008216;28;20391;-74
2022/10/09 04:08:06;;;;;;;10.93;4.78;;;;;;;11.57;75.00;101119.06;5021379;28;20422;-74
2022/10/09 04:10:32;;;;;;;9.67;4.90;;;;;;;11.43;75.69;101118.44;5019258;28;20404;-74
2022/10/09 04:12:57;;;;;;;7.33;4.23;;;;;;;11.45;75.67;101114.47;5010719;28;20417;-74
2022/10/09 04:15:22;;;;;;;7.47;4.77;;;;;;;11.52;75.62;101121.66;5023148;28;20446;-74
2022/10/09 04:17:47;;;;;;;12.03;5.23;;;;;;;11.42;75.53;101116.81;5017526;28;20745;-74
2022/10/09 04:20:13;;;;;;;8.63;5.30;;;;;;;11.28;76.25;101120.78;5017931;28;20424;-74
2022/10/09 04:22:38;;;;;;;6.87;4.70;;;;;;;11.30;76.13;101118.66;5000179;28;20456;-74
2022/10/09 04:25:04;;;;;;;9.03;4.33;;;;;;;11.39;75.96;101109.94;5020517;28;20435;-74
2022/10/09 04:27:30;;;;;;;8.73;4.77;;;;;;;11.44;75.58;101109.25;5018370;28;20774;-74
2022/10/09 04:29:56;;;;;;;10.25;5.35;;;;;;;11.45;75.35;101108.19;5020029;28;20440;-74
2022/10/09 04:32:21;;;;;;;11.70;5.05;;;;;;;11.37;75.52;101109.38;5008401;28;20409;-74
2022/10/09 04:34:47;;;;;;;7.53;4.97;;;;;;;11.37;75.78;101109.38;5017975;28;20472;-74
2022/10/09 04:37:12;;;;;;;10.60;4.70;;;;;;;11.37;75.63;101108.53;5026696;28;20478;-74
2022/10/09 04:39:37;;;;;;;10.10;4.83;;;;;;;11.39;75.99;101103.72;5024862;28;20521;-74
2022/10/09 04:42:03;;;;;;;5.77;4.87;;;;;;;11.38;75.50;101108.31;5011793;28;20418;-74
2022/10/09 04:44:28;;;;;;;9.80;4.70;;;;;;;11.36;75.89;101102.28;5020613;28;20401;-74
2022/10/09 04:46:53;;;;;;;14.23;5.57;;;;;;;11.36;75.32;101102.28;5024188;28;20932;-74
2022/10/09 04:49:19;;;;;;;8.90;5.27;;;;;;;11.29;75.76;101100.75;5008100;28;20412;-74
2022/10/09 04:51:44;;;;;;;12.60;5.23;;;;;;;11.31;75.51;101109.47;5002643;28;21195;-74
2022/10/09 04:54:11;;;;;;;7.75;4.93;;;;;;;11.15;75.99;101108.28;5010107;28;20428;-74
2022/10/09 04:56:37;;;;;;;6.97;4.65;;;;;;;11.17;76.08;101108.84;5025262;28;20453;-74
2022/10/09 04:59:02;;;;;;;13.73;4.90;;;;;;;11.20;76.10;101105.69;5009097;28;20423;-74
2022/10/09 05:01:28;;;;;;;9.17;5.30;;;;;;;11.18;75.81;101104.25;5003873;28;20443;-74
2022/10/09 05:03:54;;;;;;;11.07;5.72;;;;;;;11.08;76.10;101096.69;5009913;28;20408;-75
2022/10/09 05:06:21;;;;;;;8.32;4.68;;;;;;;11.02;76.47;101094.91;5003163;28;20404;-74
2022/10/09 05:08:47;;;;;;;8.27;5.07;;;;;;;11.06;76.61;101103.41;5006310;28;20414;-74
2022/10/09 05:11:15;;;;;;;9.15;5.18;;;;;;;11.07;76.16;101102.34;5009013;28;20419;-74
2022/10/09 05:13:44;;;;;;;8.45;4.90;;;;;;;10.96;76.49;101098.56;5007850;28;20505;-74
2022/10/09 05:16:12;;;;;;;6.93;5.10;;;;;;;10.83;76.73;101101.47;4996185;28;20402;-74
2022/10/09 05:18:42;;;;;;;8.95;5.82;;;;;;;10.85;76.75;101096.63;5005691;28;20763;-74
2022/10/09 05:21:08;;;;;;;9.90;4.97;;;;;;;10.88;76.56;101094.28;5001648;28;20762;-74
2022/10/09 05:23:34;;;;;;;6.93;4.70;;;;;;;10.81;76.84;101096.28;5004157;28;20405;-74
2022/10/09 05:26:04;;;;;;;8.57;4.82;;;;;;;10.79;76.95;101095.69;5009088;28;20418;-74
2022/10/09 05:28:31;;;;;;;8.70;4.83;;;;;;;10.70;77.11;101098.94;5018522;28;20579;-74
2022/10/09 05:30:56;;;;;;;8.50;5.18;;;;;;;10.74;77.04;101095.53;5006862;28;20405;-74
2022/10/09 05:33:21;;;;;;;7.10;4.95;;;;;;;10.77;77.02;101096.94;4999280;28;20947;-74
2022/10/09 05:35:54;;;;;;;8.23;5.40;;;;;;;10.68;76.95;101092.91;5014326;28;20412;-74
2022/10/09 05:38:20;;;;;;;11.23;5.60;;;;;;;10.72;77.07;101092.25;5010168;28;20504;-74
2022/10/09 05:40:54;;;;;;;6.63;5.38;;;;;;;10.77;76.80;101099.66;5008348;28;20408;-74
2022/10/09 05:43:21;;;;;;;11.30;5.13;;;;;;;10.81;76.65;101090.84;5002558;28;20420;-74
2022/10/09 05:45:46;;;;;;;7.30;5.82;;;;;;;10.79;76.91;101095.69;5012615;28;20439;-74
2022/10/09 05:48:11;;;;;;;6.55;5.13;;;;;;;10.80;76.71;101096.50;5016065;28;20437;-74
2022/10/09 05:50:37;;;;;;;7.23;5.03;;;;;;;10.79;76.44;101092.97;4999969;28;20515;-74
2022/10/09 05:53:02;;;;;;;10.13;5.13;;;;;;;10.77;76.15;101102.38;5003586;28;20459;-74
2022/10/09 05:55:27;;;;;;;8.57;5.37;;;;;;;10.77;76.58;101096.94;5009628;28;20774;-74
2022/10/09 05:57:53;;;;;;;6.83;5.20;;;;;;;10.81;75.95;101096.28;5006577;28;20410;-74
2022/10/09 06:00:18;;;;;;;10.40;5.20;;;;;;;10.79;76.32;101101.09;5002734;28;20466;-74
2022/10/09 06:02:44;;;;;;;6.57;4.70;;;;;;;10.74;76.26;101100.97;5008904;28;20415;-74
2022/10/09 06:05:10;;;;;;;16.13;5.47;;;;;;;10.79;76.34;101105.69;5000700;28;20414;-74
2022/10/09 06:07:35;;;;;;;9.70;4.93;;;;;;;10.86;76.00;101093.72;4995620;28;20480;-74
2022/10/09 06:10:01;;;;;;;10.25;6.55;;;;;;;10.80;76.09;101096.50;5002172;28;20462;-74
2022/10/09 06:12:26;;;;;;;9.15;5.20;;;;;;;10.82;76.21;101094.38;5007375;28;20508;-74
2022/10/09 06:14:51;;;;;;;10.23;7.00;;;;;;;10.76;76.05;101092.59;5002733;28;20510;-75
2022/10/09 06:17:17;;;;;;;9.13;6.17;;;;;;;10.72;76.43;101092.25;5011995;28;20902;-74
2022/10/09 06:19:42;;;;;;;11.37;5.57;;;;;;;10.57;76.40;101093.72;5012255;28;20481;-74
2022/10/09 06:22:07;;;;;;;6.60;5.73;;;;;;;10.60;76.96;101101.38;5014304;28;20407;-74
2022/10/09 06:24:32;;;;;;;7.20;5.03;;;;;;;10.64;77.00;101089.84;5006800;28;20743;-74
2022/10/09 06:26:58;;;;;;;6.43;4.53;;;;;;;10.77;76.35;101095.06;5003476;28;20405;-75
2022/10/09 06:29:23;;;;;;;6.93;5.03;;;;;;;10.73;76.34;101099.31;5003675;28;20968;-74
2022/10/09 06:31:48;;;;;;;9.93;6.65;;;;;;;10.76;76.33;101096.16;4998434;28;20413;-74
2022/10/09 06:34:14;;;;;;;7.60;4.97;;;;;;;10.79;76.38;101087.56;4999409;28;20423;-74
2022/10/09 06:36:39;;;;;;;8.65;5.90;;;;;;;10.68;76.59;101099.16;5012511;28;20444;-74
2022/10/09 06:39:06;;;;;;;7.87;5.60;;;;;;;10.67;76.97;101104.84;5018609;28;20399;-75
2022/10/09 06:41:32;;;;;;;7.45;4.78;;;;;;;10.72;76.63;101099.53;5008097;28;20406;-74
2022/10/09 06:44:00;;;;;;;8.85;5.20;;;;;;;10.80;76.42;101105.44;5002304;28;20420;-74
2022/10/09 06:46:29;;;;;;;6.50;4.65;;;;;;;10.90;76.13;101111.16;4999691;28;20882;-74
2022/10/09 06:48:54;;;;;;;11.18;5.85;;;;;;;10.94;75.96;101108.81;5001228;28;20441;-74
2022/10/09 06:51:22;;;;;;;5.30;4.35;;;;;;;11.00;75.88;101104.34;5014175;28;20882;-74
2022/10/09 06:53:53;;;;;;;7.93;5.10;;;;;;;11.06;75.58;101115.09;5001979;28;20417;-74
2022/10/09 06:56:21;;;;;;;11.55;5.75;;;;;;;11.10;75.74;101112.75;5006362;28;20434;-74
2022/10/09 06:58:47;;;;;;;5.28;4.78;;;;;;;11.16;75.46;101111.81;5002908;28;20419;-75
2022/10/09 07:01:18;;;;;;;8.38;5.55;;;;;;;11.12;75.42;101119.59;5001251;28;20407;-75
2022/10/09 07:03:46;;;;;;;7.07;4.50;;;;;;;11.17;75.42;101117.00;5012162;28;20413;-74
2022/10/09 07:06:16;;;;;;;5.07;4.20;;;;;;;11.32;75.13;101119.28;5008091;28;20410;-74
2022/10/09 07:08:45;;;;;;;7.85;4.85;;;;;;;11.45;74.69;101113.63;5004657;28;20434;-76
2022/10/09 07:11:12;;;;;;;7.63;4.68;;;;;;;11.40;74.62;101113.50;4998796;28;20416;-75
2022/10/09 07:13:40;;;;;;;6.50;4.77;;;;;;;11.40;74.56;101114.31;4990820;28;20489;-75
2022/10/09 07:16:06;;;;;;;13.75;5.97;;;;;;;11.41;74.61;101116.00;4989769;28;20434;-75
2022/10/09 07:18:33;;;;;;;7.18;4.47;;;;;;;11.44;74.71;101115.50;4992159;28;20924;-75
2022/10/09 07:21:07;;;;;;;7.68;4.65;;;;;;;11.56;74.39;101117.44;4994988;28;21009;-75
2022/10/09 07:23:34;;;;;;;6.40;4.72;;;;;;;11.53;74.35;101112.44;4992896;28;20781;-75
2022/10/09 07:26:03;;;;;;;6.63;4.78;;;;;;;11.46;74.78;101120.69;4993526;28;20493;-75
2022/10/09 07:28:28;;;;;;;7.35;4.43;;;;;;;11.48;75.13;101120.47;4989763;28;20410;-75
2022/10/09 07:30:55;;;;;;;7.33;4.70;;;;;;;11.45;75.05;101124.50;5014767;28;20402;-74
2022/10/09 07:33:20;;;;;;;8.07;4.90;;;;;;;11.44;75.39;101125.53;4987752;28;20943;-74
2022/10/09 07:35:56;;;;;;;10.87;4.57;;;;;;;11.51;75.67;101125.44;4992301;28;20433;-74
2022/10/09 07:38:23;;;;;;;9.03;5.10;;;;;;;11.47;75.68;101119.63;4991942;28;21282;-75
2022/10/09 07:40:49;;;;;;;7.80;4.75;;;;;;;11.51;75.91;101128.16;4989275;28;20448;-75
2022/10/09 07:43:15;;;;;;;7.43;4.37;;;;;;;11.58;75.59;101128.88;4989382;28;20403;-76
2022/10/09 07:45:40;;;;;;;7.80;4.53;;;;;;;11.60;75.47;101121.28;5006551;28;20819;-76
2022/10/09 07:48:05;;;;;;;7.53;4.60;;;;;;;11.62;75.62;101117.31;5003722;28;20402;-75
2022/10/09 07:50:30;;;;;;;10.93;4.77;;;;;;;11.66;75.86;101117.63;5003330;28;20412;-75
2022/10/09 07:52:56;;;;;;;7.23;4.83;;;;;;;11.70;75.60;101108.81;4992507;28;20408;-75
2022/10/09 07:55:21;;;;;;;7.63;4.50;;;;;;;11.75;75.49;101098.09;4990214;28;20429;-76
2022/10/09 07:57:46;;;;;;;5.30;4.80;;;;;;;11.81;75.30;101105.28;5000697;28;20462;-75
2022/10/09 08:00:12;;;;;;;4.63;4.22;;;;;;;11.83;75.27;101097.72;5008202;28;20413;-75
2022/10/09 08:02:37;;;;;;;13.23;5.13;;;;;;;11.85;75.53;101101.03;5005860;28;20401;-75
2022/10/09 08:05:02;;;;;;;6.17;4.20;;;;;;;11.91;75.32;101097.38;5019056;28;20440;-75
2022/10/09 08:07:28;;;;;;;6.77;4.73;;;;;;;11.98;75.43;101108.09;5007771;28;20419;-75
2022/10/09 08:09:53;;;;;;;6.68;4.10;;;;;;;11.99;75.45;101103.50;5008807;28;20487;-75
2022/10/09 08:12:18;;;;;;;4.87;4.20;;;;;;;12.01;75.58;101101.38;4999905;28;20433;-75
2022/10/09 08:14:45;;;;;;;7.73;4.07;;;;;;;12.05;75.54;101106.09;4995654;28;20430;-75
2022/10/09 08:17:11;;;;;;;5.78;3.92;;;;;;;12.25;75.01;101100.25;4998255;28;20405;-75
2022/10/09 08:19:36;;;;;;;6.00;4.03;;;;;;;12.38;74.43;101098.06;5000631;28;20404;-75
2022/10/09 08:22:01;;;;;;;7.47;4.20;;;;;;;12.44;74.50;101099.84;5012139;28;20403;-75
2022/10/09 08:24:27;;;;;;;8.87;4.37;;;;;;;12.54;74.12;101101.13;5000124;28;20895;-75
2022/10/09 08:26:52;;;;;;;6.60;3.77;;;;;;;12.56;73.90;101105.22;4997036;28;20410;-75
2022/10/09 08:29:19;;;;;;;4.87;4.10;;;;;;;12.58;74.03;101096.84;5020662;28;20501;-75
2022/10/09 08:31:45;;;;;;;5.93;4.40;;;;;;;12.61;73.72;101093.63;4993867;28;20417;-75
2022/10/09 08:34:10;;;;;;;6.25;3.97;;;;;;;12.65;73.63;101087.47;5004231;28;20509;-75
2022/10/09 08:36:36;;;;;;;5.50;3.90;;;;;;;12.67;73.45;101085.34;5001510;28;20409;-75
2022/10/09 08:39:01;;;;;;;10.23;4.00;;;;;;;12.67;73.67;101079.06;5016303;28;20434;-75
2022/10/09 08:41:49;;;;;;;7.13;3.80;;;;;;;12.77;73.22;101085.53;5006545;28;20884;-75
2022/10/09 08:44:27;;;;;;;7.45;3.92;;;;;;;12.79;73.11;101083.38;5013580;28;20915;-75
2022/10/09 08:47:09;;;;;;;7.82;4.57;;;;;;;12.83;73.35;101086.44;5000112;28;20488;-75
2022/10/09 08:49:53;;;;;;;5.57;3.50;;;;;;;12.92;73.19;101079.53;5007013;28;20416;-78
2022/10/09 08:52:43;;;;;;;7.32;3.72;;;;;;;13.02;72.90;101076.97;5014435;28;20431;-77
2022/10/09 08:55:23;;;;;;;6.17;3.50;;;;;;;13.07;72.98;101070.81;4995115;28;20528;-75
2022/10/09 08:57:53;;;;;;;6.45;3.40;;;;;;;13.14;73.06;101064.16;5010866;28;20906;-75
2022/10/09 09:00:21;;;;;;;9.13;4.00;;;;;;;13.21;72.99;101061.25;5003381;28;20420;-76
2022/10/09 09:03:06;;;;;;;5.72;3.58;;;;;;;13.28;72.63;101061.94;5002661;28;20419;-76
2022/10/09 09:05:40;;;;;;;5.90;3.05;;;;;;;13.23;73.02;101057.25;5005478;28;20403;-76
2022/10/09 09:08:15;;;;;;;6.32;3.05;;;;;;;13.28;73.22;101051.88;5005573;28;20416;-75
2022/10/09 09:11:02;;;;;;;6.13;2.92;;;;;;;13.34;73.06;101055.47;5007812;28;20829;-75
2022/10/09 09:13:46;;;;;;;5.25;2.85;;;;;;;13.40;72.72;101052.59;4994258;28;20413;-79
2022/10/09 09:16:25;;;;;;;3.85;2.70;;;;;;;13.48;71.95;101049.47;5002438;28;20510;-75
2022/10/09 09:19:09;;;;;;;5.35;2.78;;;;;;;13.62;71.14;101049.94;5003762;28;20939;-76
2022/10/09 09:21:51;;;;;;;6.20;2.85;;;;;;;13.95;69.77;101040.84;4999349;28;20421;-76
2022/10/09 09:24:39;;;;;;;5.90;2.90;;;;;;;13.94;69.75;101040.03;5007163;28;20413;-77
2022/10/09 09:27:18;;;;;;;3.67;2.33;;;;;;;13.93;69.50;101037.53;5000170;28;20440;-75
2022/10/09 09:30:02;;;;;;;5.07;2.40;;;;;;;13.98;69.66;101034.91;5005765;28;20410;-74
2022/10/09 09:32:29;;;;;;;4.60;2.22;;;;;;;14.12;69.38;101030.72;5000783;28;20473;-75
2022/10/09 09:35:06;;;;;;;3.72;2.53;;;;;;;14.21;67.83;101029.19;4998781;28;20420;-74
2022/10/09 09:37:32;;;;;;;6.43;2.05;;;;;;;14.24;67.54;101028.69;5004819;28;20436;-74
2022/10/09 09:39:57;;;;;;;6.05;2.70;;;;;;;14.34;67.56;101017.91;4999109;28;20434;-74
2022/10/09 09:42:23;;;;;;;5.33;2.27;;;;;;;14.77;66.47;101019.72;4999554;28;20775;-74
2022/10/09 09:44:59;;;;;;;3.37;2.23;;;;;;;15.41;64.65;101019.69;4999355;28;20404;-74
2022/10/09 09:47:50;;;;;;;8.77;5.15;;;;;;;15.85;63.32;101012.84;4989291;28;20504;-74
2022/10/09 09:50:27;;;;;;;4.28;2.80;;;;;;;16.29;61.47;101005.09;4989107;28;20998;-74
2022/10/09 09:52:54;;;;;;;5.95;3.10;;;;;;;16.35;60.90;101000.47;4985391;28;20410;-74
2022/10/09 09:55:26;;;;;;;8.13;4.00;;;;;;;16.58;60.26;101000.81;4988696;28;20439;-74
2022/10/09 09:57:59;;;;;;;6.72;2.78;;;;;;;17.02;59.23;101000.31;4988815;28;20421;-74
2022/10/09 10:00:24;;;;;;;3.53;1.85;;;;;;;18.08;56.49;100995.41;4990614;28;20813;-74
2022/10/09 10:03:01;;;;;;;4.03;1.83;;;;;;;19.25;53.53;100989.09;5006196;28;21191;-74
2022/10/09 10:05:26;;;;;;;2.72;2.15;;;;;;;20.19;50.56;100991.06;4999699;28;20489;-74
2022/10/09 10:07:52;;;;;;;2.87;1.60;;;;;;;21.09;48.51;100982.53;4998281;28;20506;-74
2022/10/09 10:10:23;;;;;;;3.15;1.80;;;;;;;21.79;46.48;100982.38;5010851;28;20440;-74
2022/10/09 10:12:52;;;;;;;2.33;1.80;;;;;;;22.27;44.54;100969.75;5006999;28;20403;-74
2022/10/09 10:15:22;;;;;;;2.85;1.83;;;;;;;22.64;42.96;100968.63;5000159;28;20425;-74
2022/10/09 10:17:53;;;;;;;2.58;1.45;;;;;;;22.98;42.23;100962.56;4999868;28;20414;-73
2022/10/09 10:20:19;;;;;;;3.20;1.50;;;;;;;22.67;42.74;100966.09;4999338;28;20758;-73
2022/10/09 10:22:55;;;;;;;2.27;1.43;;;;;;;22.47;42.47;100958.25;4996332;28;20407;-72
2022/10/09 10:25:25;;;;;;;2.35;2.15;;;;;;;22.78;41.68;100963.91;5003840;28;20440;-74
2022/10/09 10:27:59;;;;;;;3.87;2.10;;;;;;;23.30;41.01;100958.69;5002912;28;20455;-73
2022/10/09 10:30:24;;;;;;;2.45;1.90;;;;;;;23.10;40.77;100947.03;5009331;28;20444;-74
2022/10/09 10:33:05;;;;;;;4.93;1.73;;;;;;;22.75;41.34;100939.66;5010289;28;20443;-73
2022/10/09 10:35:34;;;;;;;2.10;1.30;;;;;;;21.94;42.36;100943.44;5002336;28;20425;-73
2022/10/09 10:38:23;;;;;;;4.88;1.58;;;;;;;21.39;43.98;100931.59;5012233;28;20424;-73
2022/10/09 10:40:57;;;;;;;4.43;1.85;;;;;;;20.85;44.74;100935.00;5003295;28;20403;-74
2022/10/09 10:43:41;;;;;;;2.53;1.70;;;;;;;20.42;45.94;100926.91;5003427;28;20471;-74
2022/10/09 10:46:27;;;;;;;6.90;1.80;;;;;;;20.07;46.69;100921.91;5017093;28;20907;-74
2022/10/09 10:48:52;;;;;;;4.28;1.55;;;;;;;19.82;47.25;100925.81;4997091;28;20468;-74
2022/10/09 10:51:39;;;;;;;2.88;1.70;;;;;;;19.55;47.91;100920.94;5005537;28;20499;-73
2022/10/09 10:54:23;;;;;;;2.23;1.80;;;;;;;19.33;48.60;100912.34;5006716;28;20532;-74
2022/10/09 10:56:52;;;;;;;5.17;1.90;;;;;;;19.12;49.02;100916.44;5004076;28;20426;-74
2022/10/09 10:59:39;;;;;;;4.03;1.55;;;;;;;18.98;49.36;100916.28;5004264;28;20807;-74
2022/10/09 11:02:20;;;;;;;1.70;1.30;;;;;;;18.85;49.44;100905.97;5020014;28;20399;-74
2022/10/09 11:05:21;;;;;;;1.95;1.38;;;;;;;18.74;49.54;100898.13;5011755;28;20414;-74
2022/10/09 11:08:09;;;;;;;6.20;1.50;;;;;;;18.67;50.27;100897.63;4998345;28;20971;-76
2022/10/09 11:11:04;;;;;;;2.97;1.67;;;;;;;18.55;49.97;100889.75;5011100;28;20911;-74
2022/10/09 11:13:35;;;;;;;2.25;1.42;;;;;;;18.49;50.31;100882.66;5004274;28;20405;-73
2022/10/09 11:16:25;;;;;;;2.40;1.60;;;;;;;18.45;50.66;100884.31;5009984;28;20886;-74
2022/10/09 11:19:09;;;;;;;6.28;1.80;;;;;;;18.41;50.47;100873.09;5002938;28;20485;-74
2022/10/09 11:22:09;;;;;;;6.00;1.98;;;;;;;18.39;50.49;100882.72;5001563;28;20388;-74
2022/10/09 11:24:55;;;;;;;2.70;1.45;;;;;;;18.35;50.56;100879.72;5010072;28;20397;-74
2022/10/09 11:27:31;;;;;;;2.35;1.63;;;;;;;18.36;50.85;100872.31;5012955;28;20393;-74
2022/10/09 11:30:04;;;;;;;3.60;1.65;;;;;;;18.34;51.11;100874.56;5012911;28;20389;-73
2022/10/09 11:33:09;;;;;;;2.63;1.40;;;;;;;18.31;51.04;100870.44;5010598;28;20409;-74
2022/10/09 11:35:52;;;;;;;2.05;1.45;;;;;;;18.36;50.71;100875.91;5008083;28;20764;-73
2022/10/09 11:38:37;;;;;;;2.90;1.38;;;;;;;18.34;50.61;100861.63;5008799;28;20437;-74